Terminal Aerodrome Forecast
Issued by NWS Sterling, VA

Home | Current Version | Previous Version | Text Only | Print | Product List | Glossary On
Versions: 1 2 3 4 5 6 7 8 9 10 11 12 13 14 15 16 17 18 19 20 21 22 23 24 25
000
FTUS41 KLWX 250900 AAA
TAFIAD
TAF AMD
KIAD 250904Z 2509/2612 00000KT P6SM OVC045
     FM252100 00000KT P6SM OVC090
     FM260100 05005KT 6SM -SN OVC050
     FM260600 08007KT 6SM -SN OVC015
     FM260900 05009KT 6SM -SN OVC008=

USA.gov is the U.S. government's official web portal to all federal, state and local government web resources and services.